sensor_id;sensor_type;location;lat;lon;timestamp;temperature;humidity
74296;SHT30;62690;48.420;-4.512;2022-09-09T15:02:54;22.38;61.03
74296;SHT30;62690;48.420;-4.512;2022-09-09T15:05:19;22.49;60.78
74296;SHT30;62690;48.420;-4.512;2022-09-09T15:07:45;22.63;59.18
74296;SHT30;62690;48.420;-4.512;2022-09-09T15:10:11;22.68;60.06
74296;SHT30;62690;48.420;-4.512;2022-09-09T15:12:36;22.73;60.50
74296;SHT30;62690;48.420;-4.512;2022-09-09T15:15:04;22.82;60.01
74296;SHT30;62690;48.420;-4.512;2022-09-09T15:17:29;22.86;60.12
74296;SHT30;62690;48.420;-4.512;2022-09-09T15:19:55;22.93;60.44
74296;SHT30;62690;48.420;-4.512;2022-09-09T15:22:20;23.00;60.27
74296;SHT30;62690;48.420;-4.512;2022-09-09T15:24:46;22.99;60.05
74296;SHT30;62690;48.420;-4.512;2022-09-09T15:27:12;23.02;61.07
74296;SHT30;62690;48.420;-4.512;2022-09-09T15:29:39;23.10;60.17
74296;SHT30;62690;48.420;-4.512;2022-09-09T15:32:05;23.17;60.14
74296;SHT30;62690;48.420;-4.512;2022-09-09T15:34:30;23.19;59.11
74296;SHT30;62690;48.420;-4.512;2022-09-09T15:36:56;23.21;57.85
74296;SHT30;62690;48.420;-4.512;2022-09-09T15:39:21;23.26;58.55
74296;SHT30;62690;48.420;-4.512;2022-09-09T15:41:48;23.23;58.50
74296;SHT30;62690;48.420;-4.512;2022-09-09T15:44:14;23.24;58.29
74296;SHT30;62690;48.420;-4.512;2022-09-09T15:46:50;23.20;59.20
74296;SHT30;62690;48.420;-4.512;2022-09-09T15:49:23;23.14;59.07
74296;SHT30;62690;48.420;-4.512;2022-09-09T15:51:55;23.09;58.62
74296;SHT30;62690;48.420;-4.512;2022-09-09T15:54:23;22.99;59.30
74296;SHT30;62690;48.420;-4.512;2022-09-09T15:56:57;22.93;59.22
74296;SHT30;62690;48.420;-4.512;2022-09-09T15:59:24;22.88;59.89
74296;SHT30;62690;48.420;-4.512;2022-09-09T16:01:50;22.80;60.47
74296;SHT30;62690;48.420;-4.512;2022-09-09T16:04:19;22.77;60.12
74296;SHT30;62690;48.420;-4.512;2022-09-09T16:06:50;22.77;60.87
74296;SHT30;62690;48.420;-4.512;2022-09-09T16:09:16;22.77;60.50
74296;SHT30;62690;48.420;-4.512;2022-09-09T16:11:41;22.82;60.27
74296;SHT30;62690;48.420;-4.512;2022-09-09T16:14:07;22.90;59.93
74296;SHT30;62690;48.420;-4.512;2022-09-09T16:16:32;23.04;59.77
74296;SHT30;62690;48.420;-4.512;2022-09-09T16:19:00;23.20;59.14
74296;SHT30;62690;48.420;-4.512;2022-09-09T16:21:31;23.27;59.16
74296;SHT30;62690;48.420;-4.512;2022-09-09T16:23:59;23.34;59.55
74296;SHT30;62690;48.420;-4.512;2022-09-09T16:26:25;23.40;58.99
74296;SHT30;62690;48.420;-4.512;2022-09-09T16:28:50;23.61;58.08
74296;SHT30;62690;48.420;-4.512;2022-09-09T16:31:21;23.95;58.13
74296;SHT30;62690;48.420;-4.512;2022-09-09T16:33:47;24.28;56.50
74296;SHT30;62690;48.420;-4.512;2022-09-09T16:36:15;24.69;57.42
74296;SHT30;62690;48.420;-4.512;2022-09-09T16:38:41;24.92;55.84
74296;SHT30;62690;48.420;-4.512;2022-09-09T16:41:09;25.08;55.53
74296;SHT30;62690;48.420;-4.512;2022-09-09T16:43:35;25.32;55.09
74296;SHT30;62690;48.420;-4.512;2022-09-09T16:46:03;25.53;52.71
74296;SHT30;62690;48.420;-4.512;2022-09-09T16:48:33;25.66;54.53
74296;SHT30;62690;48.420;-4.512;2022-09-09T16:51:06;25.89;52.76
74296;SHT30;62690;48.420;-4.512;2022-09-09T16:53:33;25.93;51.58
74296;SHT30;62690;48.420;-4.512;2022-09-09T16:56:05;25.78;52.85
74296;SHT30;62690;48.420;-4.512;2022-09-09T16:58:31;25.83;53.46
74296;SHT30;62690;48.420;-4.512;2022-09-09T17:01:01;26.14;54.25
74296;SHT30;62690;48.420;-4.512;2022-09-09T17:03:27;26.54;52.57
74296;SHT30;62690;48.420;-4.512;2022-09-09T17:05:53;26.89;51.23
74296;SHT30;62690;48.420;-4.512;2022-09-09T17:08:18;27.23;50.99
74296;SHT30;62690;48.420;-4.512;2022-09-09T17:10:43;27.46;51.46
74296;SHT30;62690;48.420;-4.512;2022-09-09T17:13:09;27.60;49.02
74296;SHT30;62690;48.420;-4.512;2022-09-09T17:15:42;27.74;48.54
74296;SHT30;62690;48.420;-4.512;2022-09-09T17:18:11;27.77;47.59
74296;SHT30;62690;48.420;-4.512;2022-09-09T17:20:40;27.67;47.06
74296;SHT30;62690;48.420;-4.512;2022-09-09T17:23:07;27.29;47.19
74296;SHT30;62690;48.420;-4.512;2022-09-09T17:25:33;26.95;48.00
74296;SHT30;62690;48.420;-4.512;2022-09-09T17:27:59;26.65;49.48
74296;SHT30;62690;48.420;-4.512;2022-09-09T17:30:26;26.49;50.70
74296;SHT30;62690;48.420;-4.512;2022-09-09T17:32:51;26.34;49.26
74296;SHT30;62690;48.420;-4.512;2022-09-09T17:35:16;26.31;50.68
74296;SHT30;62690;48.420;-4.512;2022-09-09T17:37:43;26.51;50.98
74296;SHT30;62690;48.420;-4.512;2022-09-09T17:40:09;26.77;50.44
74296;SHT30;62690;48.420;-4.512;2022-09-09T17:42:34;26.74;48.71
74296;SHT30;62690;48.420;-4.512;2022-09-09T17:45:00;26.52;48.34
74296;SHT30;62690;48.420;-4.512;2022-09-09T17:47:27;26.27;50.09
74296;SHT30;62690;48.420;-4.512;2022-09-09T17:49:53;26.26;49.87
74296;SHT30;62690;48.420;-4.512;2022-09-09T17:52:19;26.34;48.90
74296;SHT30;62690;48.420;-4.512;2022-09-09T17:54:45;26.44;49.45
74296;SHT30;62690;48.420;-4.512;2022-09-09T17:57:10;26.48;47.20
74296;SHT30;62690;48.420;-4.512;2022-09-09T17:59:36;26.38;48.11
74296;SHT30;62690;48.420;-4.512;2022-09-09T18:02:02;26.18;46.81
74296;SHT30;62690;48.420;-4.512;2022-09-09T18:04:29;25.83;48.62
74296;SHT30;62690;48.420;-4.512;2022-09-09T18:06:54;25.55;49.47
74296;SHT30;62690;48.420;-4.512;2022-09-09T18:09:23;25.22;50.37
74296;SHT30;62690;48.420;-4.512;2022-09-09T18:11:52;24.94;50.69
74296;SHT30;62690;48.420;-4.512;2022-09-09T18:14:20;24.66;52.08
74296;SHT30;62690;48.420;-4.512;2022-09-09T18:16:47;24.40;52.23
74296;SHT30;62690;48.420;-4.512;2022-09-09T18:19:19;24.16;53.71
74296;SHT30;62690;48.420;-4.512;2022-09-09T18:21:46;24.02;53.99
74296;SHT30;62690;48.420;-4.512;2022-09-09T18:24:13;23.85;54.15
74296;SHT30;62690;48.420;-4.512;2022-09-09T18:26:39;23.71;54.60
74296;SHT30;62690;48.420;-4.512;2022-09-09T18:29:11;23.57;54.96
74296;SHT30;62690;48.420;-4.512;2022-09-09T18:31:38;23.46;55.80
74296;SHT30;62690;48.420;-4.512;2022-09-09T18:34:05;23.36;56.01
74296;SHT30;62690;48.420;-4.512;2022-09-09T18:36:38;23.24;56.23
74296;SHT30;62690;48.420;-4.512;2022-09-09T18:39:06;23.11;56.45
74296;SHT30;62690;48.420;-4.512;2022-09-09T18:41:35;23.00;57.01
74296;SHT30;62690;48.420;-4.512;2022-09-09T18:44:04;22.92;56.96
74296;SHT30;62690;48.420;-4.512;2022-09-09T18:46:32;22.82;57.12
74296;SHT30;62690;48.420;-4.512;2022-09-09T18:48:59;22.70;57.61
74296;SHT30;62690;48.420;-4.512;2022-09-09T18:51:27;22.59;57.97
74296;SHT30;62690;48.420;-4.512;2022-09-09T18:53:59;22.52;58.45
74296;SHT30;62690;48.420;-4.512;2022-09-09T18:56:26;22.42;58.80
74296;SHT30;62690;48.420;-4.512;2022-09-09T18:58:55;22.38;59.50
74296;SHT30;62690;48.420;-4.512;2022-09-09T19:01:22;22.31;59.26
74296;SHT30;62690;48.420;-4.512;2022-09-09T19:03:48;22.25;60.30
74296;SHT30;62690;48.420;-4.512;2022-09-09T19:06:17;22.17;60.39
74296;SHT30;62690;48.420;-4.512;2022-09-09T19:08:45;22.14;59.89
74296;SHT30;62690;48.420;-4.512;2022-09-09T19:11:19;22.07;60.15
74296;SHT30;62690;48.420;-4.512;2022-09-09T19:13:54;22.00;60.51
